Terminal Aerodrome Forecast
Issued by NWS

Home | Current Version | Previous Version | Text Only | Print | Product List | Glossary On
Versions: 1 2 3 4 5 6 7 8 9 10 11 12 13
103
FTUS43 KSGF 120536
TAFBBG
TAF
KBBG 120536Z 1206/1306 12004KT P6SM BKN150
     FM121200 30005KT P6SM SCT150 BKN250
     FM121500 33010G15KT P6SM FEW030 BKN250=

USA.gov is the U.S. government's official web portal to all federal, state and local government web resources and services.